sensor_id;sensor_type;location;lat;lon;timestamp;P1;durP1;ratioP1;P2;durP2;ratioP2
42420;SDS011;28063;48.140;11.588;2023-10-09T00:00:53;1.25;;;1.02;;
42420;SDS011;28063;48.140;11.588;2023-10-09T00:03:42;1.40;;;1.13;;
42420;SDS011;28063;48.140;11.588;2023-10-09T00:06:08;1.20;;;1.10;;
42420;SDS011;28063;48.140;11.588;2023-10-09T00:08:38;1.00;;;0.90;;
42420;SDS011;28063;48.140;11.588;2023-10-09T00:11:09;1.88;;;0.98;;
42420;SDS011;28063;48.140;11.588;2023-10-09T00:13:41;1.08;;;1.00;;
42420;SDS011;28063;48.140;11.588;2023-10-09T00:16:25;1.15;;;1.05;;
42420;SDS011;28063;48.140;11.588;2023-10-09T00:19:05;0.77;;;0.77;;
42420;SDS011;28063;48.140;11.588;2023-10-09T00:21:55;1.30;;;1.00;;
42420;SDS011;28063;48.140;11.588;2023-10-09T00:24:23;1.77;;;1.33;;
42420;SDS011;28063;48.140;11.588;2023-10-09T00:26:50;1.38;;;1.15;;
42420;SDS011;28063;48.140;11.588;2023-10-09T00:29:48;1.20;;;1.08;;
42420;SDS011;28063;48.140;11.588;2023-10-09T00:32:19;1.65;;;1.30;;
42420;SDS011;28063;48.140;11.588;2023-10-09T00:34:51;0.90;;;0.90;;
42420;SDS011;28063;48.140;11.588;2023-10-09T00:37:17;1.38;;;1.10;;
42420;SDS011;28063;48.140;11.588;2023-10-09T00:39:51;1.13;;;0.98;;
42420;SDS011;28063;48.140;11.588;2023-10-09T00:42:22;2.05;;;0.85;;
42420;SDS011;28063;48.140;11.588;2023-10-09T00:45:00;1.38;;;1.02;;
42420;SDS011;28063;48.140;11.588;2023-10-09T00:47:30;0.90;;;0.90;;
42420;SDS011;28063;48.140;11.588;2023-10-09T00:50:01;1.10;;;0.93;;
42420;SDS011;28063;48.140;11.588;2023-10-09T00:52:53;2.53;;;1.40;;
42420;SDS011;28063;48.140;11.588;2023-10-09T00:55:27;0.93;;;0.80;;
42420;SDS011;28063;48.140;11.588;2023-10-09T00:58:23;1.00;;;0.98;;
42420;SDS011;28063;48.140;11.588;2023-10-09T01:00:56;1.02;;;0.90;;
42420;SDS011;28063;48.140;11.588;2023-10-09T01:03:24;1.52;;;1.05;;
42420;SDS011;28063;48.140;11.588;2023-10-09T01:05:52;1.83;;;1.25;;
42420;SDS011;28063;48.140;11.588;2023-10-09T01:08:41;0.85;;;0.85;;
42420;SDS011;28063;48.140;11.588;2023-10-09T01:11:11;1.67;;;1.35;;
42420;SDS011;28063;48.140;11.588;2023-10-09T01:13:48;0.77;;;0.77;;
42420;SDS011;28063;48.140;11.588;2023-10-09T01:16:22;1.40;;;1.30;;
42420;SDS011;28063;48.140;11.588;2023-10-09T01:21:14;1.23;;;0.90;;
42420;SDS011;28063;48.140;11.588;2023-10-09T01:23:41;1.48;;;0.82;;
42420;SDS011;28063;48.140;11.588;2023-10-09T01:26:27;1.52;;;1.02;;
42420;SDS011;28063;48.140;11.588;2023-10-09T01:28:57;0.82;;;0.82;;
42420;SDS011;28063;48.140;11.588;2023-10-09T01:31:25;1.48;;;1.08;;
42420;SDS011;28063;48.140;11.588;2023-10-09T01:33:52;1.75;;;1.02;;
42420;SDS011;28063;48.140;11.588;2023-10-09T01:36:25;0.98;;;0.93;;
42420;SDS011;28063;48.140;11.588;2023-10-09T01:41:22;1.33;;;0.80;;
42420;SDS011;28063;48.140;11.588;2023-10-09T01:43:48;0.82;;;0.82;;
42420;SDS011;28063;48.140;11.588;2023-10-09T01:46:16;0.82;;;0.80;;
42420;SDS011;28063;48.140;11.588;2023-10-09T01:48:44;0.60;;;0.60;;
42420;SDS011;28063;48.140;11.588;2023-10-09T01:51:14;1.58;;;1.00;;
42420;SDS011;28063;48.140;11.588;2023-10-09T01:53:44;1.42;;;1.33;;
42420;SDS011;28063;48.140;11.588;2023-10-09T01:56:18;2.78;;;1.27;;
42420;SDS011;28063;48.140;11.588;2023-10-09T01:58:45;1.88;;;1.13;;
42420;SDS011;28063;48.140;11.588;2023-10-09T02:01:12;2.65;;;2.08;;
42420;SDS011;28063;48.140;11.588;2023-10-09T02:03:39;2.25;;;1.35;;
42420;SDS011;28063;48.140;11.588;2023-10-09T02:06:08;2.75;;;1.23;;
42420;SDS011;28063;48.140;11.588;2023-10-09T02:08:51;2.10;;;1.20;;
42420;SDS011;28063;48.140;11.588;2023-10-09T02:11:18;1.60;;;1.38;;
42420;SDS011;28063;48.140;11.588;2023-10-09T02:14:00;2.85;;;1.60;;
42420;SDS011;28063;48.140;11.588;2023-10-09T02:16:27;3.40;;;1.38;;
42420;SDS011;28063;48.140;11.588;2023-10-09T02:18:54;1.58;;;1.10;;
42420;SDS011;28063;48.140;11.588;2023-10-09T02:21:24;2.33;;;1.20;;
42420;SDS011;28063;48.140;11.588;2023-10-09T02:24:05;2.40;;;1.42;;
42420;SDS011;28063;48.140;11.588;2023-10-09T02:26:51;1.38;;;1.20;;
42420;SDS011;28063;48.140;11.588;2023-10-09T02:29:17;1.48;;;1.08;;
42420;SDS011;28063;48.140;11.588;2023-10-09T02:31:43;1.38;;;1.02;;
42420;SDS011;28063;48.140;11.588;2023-10-09T02:34:12;2.65;;;1.60;;
42420;SDS011;28063;48.140;11.588;2023-10-09T02:36:40;2.50;;;1.13;;
42420;SDS011;28063;48.140;11.588;2023-10-09T02:39:07;3.40;;;1.65;;
42420;SDS011;28063;48.140;11.588;2023-10-09T02:41:48;2.60;;;1.65;;
42420;SDS011;28063;48.140;11.588;2023-10-09T02:44:14;2.83;;;1.20;;
42420;SDS011;28063;48.140;11.588;2023-10-09T02:46:41;2.88;;;1.63;;
42420;SDS011;28063;48.140;11.588;2023-10-09T02:49:09;0.90;;;0.85;;
42420;SDS011;28063;48.140;11.588;2023-10-09T02:51:41;1.00;;;0.95;;
42420;SDS011;28063;48.140;11.588;2023-10-09T02:54:12;1.05;;;0.93;;
42420;SDS011;28063;48.140;11.588;2023-10-09T02:56:48;1.02;;;0.93;;
42420;SDS011;28063;48.140;11.588;2023-10-09T02:59:30;1.20;;;0.93;;
42420;SDS011;28063;48.140;11.588;2023-10-09T03:01:56;1.30;;;1.20;;
42420;SDS011;28063;48.140;11.588;2023-10-09T03:04:25;1.10;;;0.93;;
42420;SDS011;28063;48.140;11.588;2023-10-09T03:06:56;1.30;;;1.02;;
42420;SDS011;28063;48.140;11.588;2023-10-09T03:09:22;1.08;;;0.98;;
42420;SDS011;28063;48.140;11.588;2023-10-09T03:11:59;0.80;;;0.80;;
42420;SDS011;28063;48.140;11.588;2023-10-09T03:14:28;1.42;;;0.80;;
42420;SDS011;28063;48.140;11.588;2023-10-09T03:16:57;2.38;;;1.15;;
42420;SDS011;28063;48.140;11.588;2023-10-09T03:19:27;0.90;;;0.90;;
42420;SDS011;28063;48.140;11.588;2023-10-09T03:21:53;2.17;;;0.82;;
42420;SDS011;28063;48.140;11.588;2023-10-09T03:24:21;1.70;;;1.17;;
42420;SDS011;28063;48.140;11.588;2023-10-09T03:26:47;1.65;;;1.05;;
42420;SDS011;28063;48.140;11.588;2023-10-09T03:29:15;3.15;;;1.83;;
42420;SDS011;28063;48.140;11.588;2023-10-09T03:31:44;1.70;;;1.35;;
42420;SDS011;28063;48.140;11.588;2023-10-09T03:34:11;1.67;;;1.38;;
42420;SDS011;28063;48.140;11.588;2023-10-09T03:36:37;1.17;;;1.00;;
42420;SDS011;28063;48.140;11.588;2023-10-09T03:39:06;1.48;;;1.00;;
42420;SDS011;28063;48.140;11.588;2023-10-09T03:41:45;1.48;;;1.00;;
42420;SDS011;28063;48.140;11.588;2023-10-09T03:44:13;1.52;;;0.93;;
42420;SDS011;28063;48.140;11.588;2023-10-09T03:46:43;2.13;;;1.48;;
42420;SDS011;28063;48.140;11.588;2023-10-09T03:49:09;3.00;;;1.88;;
42420;SDS011;28063;48.140;11.588;2023-10-09T03:51:40;2.13;;;1.02;;
42420;SDS011;28063;48.140;11.588;2023-10-09T03:54:07;1.55;;;1.27;;
42420;SDS011;28063;48.140;11.588;2023-10-09T03:56:34;1.13;;;0.90;;
42420;SDS011;28063;48.140;11.588;2023-10-09T03:59:00;1.65;;;1.13;;
42420;SDS011;28063;48.140;11.588;2023-10-09T04:01:30;3.40;;;1.23;;
42420;SDS011;28063;48.140;11.588;2023-10-09T04:04:05;1.67;;;1.30;;
42420;SDS011;28063;48.140;11.588;2023-10-09T04:06:35;2.45;;;1.50;;
42420;SDS011;28063;48.140;11.588;2023-10-09T04:09:09;0.88;;;0.85;;
42420;SDS011;28063;48.140;11.588;2023-10-09T04:11:45;1.23;;;1.15;;
42420;SDS011;28063;48.140;11.588;2023-10-09T04:14:34;1.25;;;0.70;;
42420;SDS011;28063;48.140;11.588;2023-10-09T04:17:01;1.27;;;0.60;;
42420;SDS011;28063;48.140;11.588;2023-10-09T04:19:34;1.05;;;0.95;;
42420;SDS011;28063;48.140;11.588;2023-10-09T04:22:13;1.00;;;0.90;;
42420;SDS011;28063;48.140;11.588;2023-10-09T04:24:51;0.75;;;0.70;;
42420;SDS011;28063;48.140;11.588;2023-10-09T04:27:17;1.10;;;0.93;;
42420;SDS011;28063;48.140;11.588;2023-10-09T04:29:51;1.40;;;0.90;;
42420;SDS011;28063;48.140;11.588;2023-10-09T04:32:19;1.00;;;0.70;;
42420;SDS011;28063;48.140;11.588;2023-10-09T04:34:50;1.00;;;0.90;;
42420;SDS011;28063;48.140;11.588;2023-10-09T04:37:22;0.98;;;0.77;;
42420;SDS011;28063;48.140;11.588;2023-10-09T04:40:08;0.95;;;0.90;;
42420;SDS011;28063;48.140;11.588;2023-10-09T04:42:38;1.13;;;0.55;;
42420;SDS011;28063;48.140;11.588;2023-10-09T04:45:11;0.57;;;0.57;;
42420;SDS011;28063;48.140;11.588;2023-10-09T04:47:40;1.05;;;0.95;;
42420;SDS011;28063;48.140;11.588;2023-10-09T04:50:23;0.93;;;0.70;;
42420;SDS011;28063;48.140;11.588;2023-10-09T04:55:21;0.52;;;0.40;;
42420;SDS011;28063;48.140;11.588;2023-10-09T04:57:51;0.77;;;0.60;;
42420;SDS011;28063;48.140;11.588;2023-10-09T05:00:27;0.40;;;0.40;;
42420;SDS011;28063;48.140;11.588;2023-10-09T05:02:54;0.45;;;0.45;;
42420;SDS011;28063;48.140;11.588;2023-10-09T05:05:28;0.50;;;0.50;;
42420;SDS011;28063;48.140;11.588;2023-10-09T05:08:10;0.35;;;0.35;;
42420;SDS011;28063;48.140;11.588;2023-10-09T05:10:42;0.63;;;0.40;;
42420;SDS011;28063;48.140;11.588;2023-10-09T05:16:03;1.15;;;0.60;;
42420;SDS011;28063;48.140;11.588;2023-10-09T05:18:29;0.50;;;0.50;;
42420;SDS011;28063;48.140;11.588;2023-10-09T05:21:08;0.40;;;0.40;;
42420;SDS011;28063;48.140;11.588;2023-10-09T05:23:52;0.77;;;0.70;;
42420;SDS011;28063;48.140;11.588;2023-10-09T05:26:48;0.40;;;0.40;;
42420;SDS011;28063;48.140;11.588;2023-10-09T05:29:17;0.52;;;0.52;;
42420;SDS011;28063;48.140;11.588;2023-10-09T05:31:47;0.40;;;0.40;;
42420;SDS011;28063;48.140;11.588;2023-10-09T05:34:30;0.68;;;0.68;;
42420;SDS011;28063;48.140;11.588;2023-10-09T05:37:02;0.50;;;0.50;;
42420;SDS011;28063;48.140;11.588;2023-10-09T05:39:47;0.40;;;0.40;;
42420;SDS011;28063;48.140;11.588;2023-10-09T05:42:35;0.45;;;0.45;;
42420;SDS011;28063;48.140;11.588;2023-10-09T05:45:07;0.40;;;0.40;;
42420;SDS011;28063;48.140;11.588;2023-10-09T05:47:52;0.30;;;0.30;;
42420;SDS011;28063;48.140;11.588;2023-10-09T05:50:19;0.80;;;0.35;;
42420;SDS011;28063;48.140;11.588;2023-10-09T05:52:51;0.30;;;0.30;;
42420;SDS011;28063;48.140;11.588;2023-10-09T05:55:18;0.45;;;0.38;;
42420;SDS011;28063;48.140;11.588;2023-10-09T05:58:02;0.45;;;0.45;;
42420;SDS011;28063;48.140;11.588;2023-10-09T06:00:47;0.50;;;0.50;;
42420;SDS011;28063;48.140;11.588;2023-10-09T06:03:32;0.32;;;0.32;;
42420;SDS011;28063;48.140;11.588;2023-10-09T06:06:13;0.47;;;0.47;;
42420;SDS011;28063;48.140;11.588;2023-10-09T06:09:04;0.85;;;0.40;;
42420;SDS011;28063;48.140;11.588;2023-10-09T06:11:40;0.93;;;0.60;;
42420;SDS011;28063;48.140;11.588;2023-10-09T06:14:11;0.35;;;0.35;;
42420;SDS011;28063;48.140;11.588;2023-10-09T06:16:41;0.30;;;0.30;;
42420;SDS011;28063;48.140;11.588;2023-10-09T06:19:08;0.43;;;0.43;;
42420;SDS011;28063;48.140;11.588;2023-10-09T06:21:50;1.20;;;1.08;;
42420;SDS011;28063;48.140;11.588;2023-10-09T06:24:16;1.45;;;1.00;;
42420;SDS011;28063;48.140;11.588;2023-10-09T06:26:44;2.25;;;1.00;;
42420;SDS011;28063;48.140;11.588;2023-10-09T06:29:36;3.40;;;1.13;;
42420;SDS011;28063;48.140;11.588;2023-10-09T06:32:22;2.65;;;1.50;;
42420;SDS011;28063;48.140;11.588;2023-10-09T06:34:52;5.65;;;1.85;;
42420;SDS011;28063;48.140;11.588;2023-10-09T06:37:22;3.22;;;1.27;;
42420;SDS011;28063;48.140;11.588;2023-10-09T06:39:48;3.15;;;1.67;;
42420;SDS011;28063;48.140;11.588;2023-10-09T06:42:29;1.90;;;1.48;;
42420;SDS011;28063;48.140;11.588;2023-10-09T06:45:01;1.65;;;1.20;;
42420;SDS011;28063;48.140;11.588;2023-10-09T06:47:50;3.50;;;1.58;;
42420;SDS011;28063;48.140;11.588;2023-10-09T06:50:35;3.13;;;1.33;;
42420;SDS011;28063;48.140;11.588;2023-10-09T06:53:19;2.35;;;1.58;;
42420;SDS011;28063;48.140;11.588;2023-10-09T06:55:50;2.25;;;1.15;;
42420;SDS011;28063;48.140;11.588;2023-10-09T06:58:17;1.58;;;0.98;;
42420;SDS011;28063;48.140;11.588;2023-10-09T07:01:06;1.42;;;1.10;;
42420;SDS011;28063;48.140;11.588;2023-10-09T07:03:50;1.38;;;1.08;;
42420;SDS011;28063;48.140;11.588;2023-10-09T07:06:19;0.75;;;0.75;;
42420;SDS011;28063;48.140;11.588;2023-10-09T07:08:55;1.75;;;1.13;;
42420;SDS011;28063;48.140;11.588;2023-10-09T07:11:37;1.45;;;1.20;;
42420;SDS011;28063;48.140;11.588;2023-10-09T07:19:43;1.23;;;1.08;;
42420;SDS011;28063;48.140;11.588;2023-10-09T07:22:12;2.20;;;1.20;;
42420;SDS011;28063;48.140;11.588;2023-10-09T07:24:45;2.83;;;1.48;;
42420;SDS011;28063;48.140;11.588;2023-10-09T07:27:20;2.92;;;1.50;;
42420;SDS011;28063;48.140;11.588;2023-10-09T07:30:11;1.52;;;1.23;;
42420;SDS011;28063;48.140;11.588;2023-10-09T07:35:33;2.17;;;1.35;;
42420;SDS011;28063;48.140;11.588;2023-10-09T07:38:09;5.40;;;1.85;;
42420;SDS011;28063;48.140;11.588;2023-10-09T07:40:36;5.07;;;2.10;;
42420;SDS011;28063;48.140;11.588;2023-10-09T07:43:24;4.85;;;2.03;;
42420;SDS011;28063;48.140;11.588;2023-10-09T07:46:09;5.95;;;1.73;;
42420;SDS011;28063;48.140;11.588;2023-10-09T07:48:55;4.30;;;1.80;;
42420;SDS011;28063;48.140;11.588;2023-10-09T07:51:21;5.45;;;2.05;;
42420;SDS011;28063;48.140;11.588;2023-10-09T07:54:10;5.10;;;2.25;;
42420;SDS011;28063;48.140;11.588;2023-10-09T07:56:43;4.25;;;2.00;;
42420;SDS011;28063;48.140;11.588;2023-10-09T07:59:18;9.63;;;2.78;;
42420;SDS011;28063;48.140;11.588;2023-10-09T08:01:45;5.78;;;2.08;;
42420;SDS011;28063;48.140;11.588;2023-10-09T08:04:23;8.70;;;2.55;;
42420;SDS011;28063;48.140;11.588;2023-10-09T08:07:09;6.63;;;2.17;;
42420;SDS011;28063;48.140;11.588;2023-10-09T08:09:44;10.68;;;2.50;;
42420;SDS011;28063;48.140;11.588;2023-10-09T08:12:16;7.03;;;2.70;;
42420;SDS011;28063;48.140;11.588;2023-10-09T08:15:05;9.70;;;2.63;;
42420;SDS011;28063;48.140;11.588;2023-10-09T08:17:56;8.93;;;2.63;;
42420;SDS011;28063;48.140;11.588;2023-10-09T08:20:29;12.45;;;2.88;;
42420;SDS011;28063;48.140;11.588;2023-10-09T08:23:14;10.77;;;2.78;;
42420;SDS011;28063;48.140;11.588;2023-10-09T08:26:13;11.15;;;2.83;;
42420;SDS011;28063;48.140;11.588;2023-10-09T08:28:43;15.43;;;3.55;;
42420;SDS011;28063;48.140;11.588;2023-10-09T08:31:16;9.93;;;2.90;;
42420;SDS011;28063;48.140;11.588;2023-10-09T08:34:10;12.32;;;4.03;;
42420;SDS011;28063;48.140;11.588;2023-10-09T08:36:48;10.15;;;2.90;;
42420;SDS011;28063;48.140;11.588;2023-10-09T08:39:20;11.00;;;3.28;;
42420;SDS011;28063;48.140;11.588;2023-10-09T08:41:55;11.65;;;2.17;;
42420;SDS011;28063;48.140;11.588;2023-10-09T08:44:26;5.75;;;2.08;;
42420;SDS011;28063;48.140;11.588;2023-10-09T08:46:55;4.43;;;2.22;;
42420;SDS011;28063;48.140;11.588;2023-10-09T08:49:22;5.90;;;1.77;;
42420;SDS011;28063;48.140;11.588;2023-10-09T08:51:48;6.95;;;2.83;;
42420;SDS011;28063;48.140;11.588;2023-10-09T08:54:14;6.95;;;2.17;;
42420;SDS011;28063;48.140;11.588;2023-10-09T08:56:41;6.43;;;2.20;;
42420;SDS011;28063;48.140;11.588;2023-10-09T08:59:16;6.13;;;2.00;;
42420;SDS011;28063;48.140;11.588;2023-10-09T09:01:44;5.53;;;2.22;;
42420;SDS011;28063;48.140;11.588;2023-10-09T09:04:10;7.43;;;2.28;;
42420;SDS011;28063;48.140;11.588;2023-10-09T09:06:39;6.40;;;2.40;;
42420;SDS011;28063;48.140;11.588;2023-10-09T09:09:12;7.97;;;2.20;;
42420;SDS011;28063;48.140;11.588;2023-10-09T09:11:41;8.75;;;2.63;;
42420;SDS011;28063;48.140;11.588;2023-10-09T09:14:14;8.52;;;2.80;;
42420;SDS011;28063;48.140;11.588;2023-10-09T09:16:47;6.70;;;2.65;;
42420;SDS011;28063;48.140;11.588;2023-10-09T09:19:13;7.00;;;2.60;;
42420;SDS011;28063;48.140;11.588;2023-10-09T09:21:47;6.65;;;2.30;;
42420;SDS011;28063;48.140;11.588;2023-10-09T09:24:14;5.80;;;2.25;;
42420;SDS011;28063;48.140;11.588;2023-10-09T09:26:46;18.38;;;3.05;;
42420;SDS011;28063;48.140;11.588;2023-10-09T09:29:23;12.05;;;3.08;;
42420;SDS011;28063;48.140;11.588;2023-10-09T09:31:53;8.02;;;2.92;;
42420;SDS011;28063;48.140;11.588;2023-10-09T09:34:20;7.93;;;2.67;;
42420;SDS011;28063;48.140;11.588;2023-10-09T09:36:54;6.60;;;2.40;;
42420;SDS011;28063;48.140;11.588;2023-10-09T09:39:30;14.65;;;4.70;;
42420;SDS011;28063;48.140;11.588;2023-10-09T09:41:59;9.80;;;3.58;;
42420;SDS011;28063;48.140;11.588;2023-10-09T09:44:42;13.70;;;3.85;;
42420;SDS011;28063;48.140;11.588;2023-10-09T09:47:13;6.95;;;2.83;;
42420;SDS011;28063;48.140;11.588;2023-10-09T09:49:48;8.38;;;3.20;;
42420;SDS011;28063;48.140;11.588;2023-10-09T09:52:18;11.90;;;2.22;;
42420;SDS011;28063;48.140;11.588;2023-10-09T09:54:44;10.40;;;3.22;;
42420;SDS011;28063;48.140;11.588;2023-10-09T09:57:11;9.13;;;2.78;;
42420;SDS011;28063;48.140;11.588;2023-10-09T09:59:41;6.28;;;2.50;;
42420;SDS011;28063;48.140;11.588;2023-10-09T10:02:16;13.93;;;3.53;;
42420;SDS011;28063;48.140;11.588;2023-10-09T10:04:45;13.85;;;3.78;;
42420;SDS011;28063;48.140;11.588;2023-10-09T10:07:15;9.02;;;2.95;;
42420;SDS011;28063;48.140;11.588;2023-10-09T10:09:42;17.38;;;4.00;;
42420;SDS011;28063;48.140;11.588;2023-10-09T10:12:10;6.30;;;3.15;;
42420;SDS011;28063;48.140;11.588;2023-10-09T10:14:55;7.88;;;3.00;;
42420;SDS011;28063;48.140;11.588;2023-10-09T10:17:30;10.30;;;3.28;;
42420;SDS011;28063;48.140;11.588;2023-10-09T10:22:26;19.60;;;4.28;;
42420;SDS011;28063;48.140;11.588;2023-10-09T10:24:53;11.57;;;3.50;;
42420;SDS011;28063;48.140;11.588;2023-10-09T10:27:20;11.10;;;3.13;;
42420;SDS011;28063;48.140;11.588;2023-10-09T10:32:58;13.55;;;5.18;;
42420;SDS011;28063;48.140;11.588;2023-10-09T10:35:24;12.73;;;3.67;;
42420;SDS011;28063;48.140;11.588;2023-10-09T10:40:47;19.08;;;4.75;;
42420;SDS011;28063;48.140;11.588;2023-10-09T10:43:22;9.23;;;3.78;;
42420;SDS011;28063;48.140;11.588;2023-10-09T10:46:03;14.18;;;3.95;;
42420;SDS011;28063;48.140;11.588;2023-10-09T10:48:34;11.68;;;4.25;;
42420;SDS011;28063;48.140;11.588;2023-10-09T10:51:07;11.63;;;4.30;;
42420;SDS011;28063;48.140;11.588;2023-10-09T10:53:36;17.48;;;4.30;;
42420;SDS011;28063;48.140;11.588;2023-10-09T10:56:14;10.98;;;3.90;;
42420;SDS011;28063;48.140;11.588;2023-10-09T10:58:41;13.60;;;3.97;;
42420;SDS011;28063;48.140;11.588;2023-10-09T11:01:19;10.25;;;3.47;;
42420;SDS011;28063;48.140;11.588;2023-10-09T11:03:49;11.95;;;3.75;;
42420;SDS011;28063;48.140;11.588;2023-10-09T11:06:24;8.30;;;3.38;;
42420;SDS011;28063;48.140;11.588;2023-10-09T11:09:00;10.05;;;3.42;;
42420;SDS011;28063;48.140;11.588;2023-10-09T11:11:35;9.93;;;4.13;;
42420;SDS011;28063;48.140;11.588;2023-10-09T11:14:12;14.73;;;3.65;;
42420;SDS011;28063;48.140;11.588;2023-10-09T11:16:48;11.93;;;4.10;;
42420;SDS011;28063;48.140;11.588;2023-10-09T11:19:18;15.90;;;4.22;;
42420;SDS011;28063;48.140;11.588;2023-10-09T11:21:56;17.77;;;4.05;;
42420;SDS011;28063;48.140;11.588;2023-10-09T11:24:48;13.02;;;3.95;;
42420;SDS011;28063;48.140;11.588;2023-10-09T11:27:35;13.05;;;4.70;;
42420;SDS011;28063;48.140;11.588;2023-10-09T11:30:05;21.10;;;5.63;;
42420;SDS011;28063;48.140;11.588;2023-10-09T11:32:35;29.73;;;6.30;;
42420;SDS011;28063;48.140;11.588;2023-10-09T11:35:10;20.35;;;5.15;;
42420;SDS011;28063;48.140;11.588;2023-10-09T11:37:36;21.17;;;5.97;;
42420;SDS011;28063;48.140;11.588;2023-10-09T11:42:59;22.50;;;5.32;;
42420;SDS011;28063;48.140;11.588;2023-10-09T11:45:26;34.38;;;6.88;;
42420;SDS011;28063;48.140;11.588;2023-10-09T11:48:15;37.17;;;7.15;;
42420;SDS011;28063;48.140;11.588;2023-10-09T11:50:46;23.77;;;5.40;;
42420;SDS011;28063;48.140;11.588;2023-10-09T11:53:18;17.23;;;4.72;;
42420;SDS011;28063;48.140;11.588;2023-10-09T11:55:47;30.55;;;6.05;;
42420;SDS011;28063;48.140;11.588;2023-10-09T11:58:17;26.35;;;6.25;;
42420;SDS011;28063;48.140;11.588;2023-10-09T12:03:16;20.67;;;4.80;;
42420;SDS011;28063;48.140;11.588;2023-10-09T12:05:47;22.23;;;5.28;;
42420;SDS011;28063;48.140;11.588;2023-10-09T12:08:13;18.50;;;5.95;;
42420;SDS011;28063;48.140;11.588;2023-10-09T12:10:41;29.38;;;6.53;;
42420;SDS011;28063;48.140;11.588;2023-10-09T12:13:07;18.38;;;5.78;;
42420;SDS011;28063;48.140;11.588;2023-10-09T12:15:33;24.33;;;5.40;;
42420;SDS011;28063;48.140;11.588;2023-10-09T12:18:04;20.17;;;4.80;;
42420;SDS011;28063;48.140;11.588;2023-10-09T12:20:31;22.88;;;5.88;;
42420;SDS011;28063;48.140;11.588;2023-10-09T12:22:59;27.10;;;6.88;;
42420;SDS011;28063;48.140;11.588;2023-10-09T12:25:26;21.58;;;5.78;;
42420;SDS011;28063;48.140;11.588;2023-10-09T12:27:56;18.83;;;5.13;;
42420;SDS011;28063;48.140;11.588;2023-10-09T12:30:22;13.80;;;4.53;;
42420;SDS011;28063;48.140;11.588;2023-10-09T12:33:04;22.92;;;5.40;;
42420;SDS011;28063;48.140;11.588;2023-10-09T12:35:35;34.97;;;5.95;;
42420;SDS011;28063;48.140;11.588;2023-10-09T12:38:01;23.33;;;5.25;;
42420;SDS011;28063;48.140;11.588;2023-10-09T12:40:28;15.23;;;4.05;;
42420;SDS011;28063;48.140;11.588;2023-10-09T12:42:56;13.13;;;4.47;;
42420;SDS011;28063;48.140;11.588;2023-10-09T12:45:25;21.23;;;5.68;;
42420;SDS011;28063;48.140;11.588;2023-10-09T12:47:55;20.27;;;5.25;;
42420;SDS011;28063;48.140;11.588;2023-10-09T12:50:25;23.48;;;6.20;;
42420;SDS011;28063;48.140;11.588;2023-10-09T12:52:55;14.65;;;4.47;;
42420;SDS011;28063;48.140;11.588;2023-10-09T12:55:21;15.60;;;4.30;;
42420;SDS011;28063;48.140;11.588;2023-10-09T12:57:56;13.88;;;4.03;;
42420;SDS011;28063;48.140;11.588;2023-10-09T13:00:25;24.02;;;5.22;;
42420;SDS011;28063;48.140;11.588;2023-10-09T13:02:51;17.38;;;6.35;;
42420;SDS011;28063;48.140;11.588;2023-10-09T13:05:20;20.73;;;5.47;;
42420;SDS011;28063;48.140;11.588;2023-10-09T13:07:53;12.73;;;3.83;;
42420;SDS011;28063;48.140;11.588;2023-10-09T13:10:21;11.20;;;3.42;;
42420;SDS011;28063;48.140;11.588;2023-10-09T13:12:49;10.90;;;3.67;;
42420;SDS011;28063;48.140;11.588;2023-10-09T13:15:20;7.97;;;3.38;;
42420;SDS011;28063;48.140;11.588;2023-10-09T13:17:47;20.98;;;5.22;;
42420;SDS011;28063;48.140;11.588;2023-10-09T13:20:13;11.43;;;4.18;;
42420;SDS011;28063;48.140;11.588;2023-10-09T13:22:39;11.00;;;3.92;;
42420;SDS011;28063;48.140;11.588;2023-10-09T13:25:11;17.17;;;4.30;;
42420;SDS011;28063;48.140;11.588;2023-10-09T13:27:44;20.25;;;5.28;;
42420;SDS011;28063;48.140;11.588;2023-10-09T13:30:17;23.65;;;4.60;;
42420;SDS011;28063;48.140;11.588;2023-10-09T13:32:49;14.05;;;4.40;;
42420;SDS011;28063;48.140;11.588;2023-10-09T13:35:19;10.35;;;3.28;;
42420;SDS011;28063;48.140;11.588;2023-10-09T13:37:52;18.10;;;3.97;;
42420;SDS011;28063;48.140;11.588;2023-10-09T13:40:21;13.93;;;3.90;;
42420;SDS011;28063;48.140;11.588;2023-10-09T13:42:54;16.88;;;4.80;;
42420;SDS011;28063;48.140;11.588;2023-10-09T13:45:26;14.77;;;3.95;;
42420;SDS011;28063;48.140;11.588;2023-10-09T13:47:54;16.02;;;4.63;;
42420;SDS011;28063;48.140;11.588;2023-10-09T13:50:20;11.35;;;3.83;;
42420;SDS011;28063;48.140;11.588;2023-10-09T13:52:47;18.00;;;4.43;;
42420;SDS011;28063;48.140;11.588;2023-10-09T13:55:13;22.85;;;5.43;;
42420;SDS011;28063;48.140;11.588;2023-10-09T13:57:45;13.48;;;4.40;;
42420;SDS011;28063;48.140;11.588;2023-10-09T14:00:14;12.85;;;3.33;;
42420;SDS011;28063;48.140;11.588;2023-10-09T14:02:59;10.68;;;2.95;;
42420;SDS011;28063;48.140;11.588;2023-10-09T14:05:37;20.75;;;5.18;;
42420;SDS011;28063;48.140;11.588;2023-10-09T14:08:09;16.05;;;4.63;;
42420;SDS011;28063;48.140;11.588;2023-10-09T14:10:38;16.73;;;4.20;;
42420;SDS011;28063;48.140;11.588;2023-10-09T14:13:04;7.20;;;3.00;;
42420;SDS011;28063;48.140;11.588;2023-10-09T14:15:37;6.15;;;2.40;;
42420;SDS011;28063;48.140;11.588;2023-10-09T14:18:08;3.83;;;2.28;;
42420;SDS011;28063;48.140;11.588;2023-10-09T14:20:36;8.82;;;2.50;;
42420;SDS011;28063;48.140;11.588;2023-10-09T14:26:27;4.57;;;2.17;;
42420;SDS011;28063;48.140;11.588;2023-10-09T14:28:54;2.53;;;1.65;;
42420;SDS011;28063;48.140;11.588;2023-10-09T14:31:25;3.97;;;1.67;;
42420;SDS011;28063;48.140;11.588;2023-10-09T14:33:53;3.60;;;1.80;;
42420;SDS011;28063;48.140;11.588;2023-10-09T14:36:20;1.65;;;1.10;;
42420;SDS011;28063;48.140;11.588;2023-10-09T14:38:47;2.22;;;1.25;;
42420;SDS011;28063;48.140;11.588;2023-10-09T14:41:17;2.33;;;1.40;;
42420;SDS011;28063;48.140;11.588;2023-10-09T14:43:46;1.85;;;0.95;;
42420;SDS011;28063;48.140;11.588;2023-10-09T14:46:13;1.20;;;1.00;;
42420;SDS011;28063;48.140;11.588;2023-10-09T14:48:39;1.70;;;0.90;;
42420;SDS011;28063;48.140;11.588;2023-10-09T14:51:11;2.60;;;1.33;;
42420;SDS011;28063;48.140;11.588;2023-10-09T14:53:38;11.13;;;2.92;;
42420;SDS011;28063;48.140;11.588;2023-10-09T14:56:05;6.07;;;2.60;;
42420;SDS011;28063;48.140;11.588;2023-10-09T14:58:39;5.43;;;2.28;;
42420;SDS011;28063;48.140;11.588;2023-10-09T15:01:09;4.97;;;2.13;;
42420;SDS011;28063;48.140;11.588;2023-10-09T15:03:35;5.45;;;2.47;;
42420;SDS011;28063;48.140;11.588;2023-10-09T15:06:05;12.00;;;2.85;;
42420;SDS011;28063;48.140;11.588;2023-10-09T15:08:35;10.85;;;3.30;;
42420;SDS011;28063;48.140;11.588;2023-10-09T15:11:01;11.65;;;3.45;;
42420;SDS011;28063;48.140;11.588;2023-10-09T15:13:27;5.50;;;2.42;;
42420;SDS011;28063;48.140;11.588;2023-10-09T15:15:54;10.63;;;3.78;;
42420;SDS011;28063;48.140;11.588;2023-10-09T15:18:21;6.70;;;3.30;;
42420;SDS011;28063;48.140;11.588;2023-10-09T15:20:47;10.55;;;3.33;;
42420;SDS011;28063;48.140;11.588;2023-10-09T15:23:13;11.00;;;3.15;;
42420;SDS011;28063;48.140;11.588;2023-10-09T15:25:39;11.15;;;3.30;;
42420;SDS011;28063;48.140;11.588;2023-10-09T15:28:10;8.38;;;3.28;;
42420;SDS011;28063;48.140;11.588;2023-10-09T15:30:37;8.38;;;2.90;;
42420;SDS011;28063;48.140;11.588;2023-10-09T15:33:04;8.90;;;2.85;;
42420;SDS011;28063;48.140;11.588;2023-10-09T15:35:30;5.15;;;2.55;;
42420;SDS011;28063;48.140;11.588;2023-10-09T15:37:59;6.88;;;2.30;;